Time;durP1;ratioP1;P1;durP2;ratioP2;P2;SDS_P1;SDS_P2;PMS_P1;PMS_P2;Temp;Humidity;BMP_temperature;BMP_pressure;BME280_temperature;BME280_humidity;BME280_pressure;Samples;Min_cycle;Max_cycle;Signal;HPM_P1;HPM_P2
2023/10/13 00:01:23;;;;;;;8.47;5.47;;;14.40;99.90;;;;;;5047702;28;20478;-85
2023/10/13 00:03:52;;;;;;;6.63;5.23;;;14.50;99.90;;;;;;5046386;28;20465;-84
2023/10/13 00:06:19;;;;;;;9.53;5.03;;;14.50;99.90;;;;;;5047990;28;20447;-83
2023/10/13 00:08:46;;;;;;;12.37;5.50;;;14.50;99.90;;;;;;5045185;28;20495;-83
2023/10/13 00:11:14;;;;;;;9.97;7.10;;;14.60;99.90;;;;;;5048691;28;20433;-84
2023/10/13 00:13:50;;;;;;;11.90;6.90;;;14.70;99.90;;;;;;5044627;28;20470;-84
2023/10/13 00:16:21;;;;;;;10.93;5.00;;;14.70;99.90;;;;;;5046552;28;20462;-86
2023/10/13 00:18:50;;;;;;;5.90;4.63;;;14.80;99.90;;;;;;5049382;28;20448;-83
2023/10/13 00:21:20;;;;;;;7.43;6.70;;;14.80;99.90;;;;;;5043176;28;20526;-83
2023/10/13 00:23:53;;;;;;;6.47;4.27;;;14.90;99.90;;;;;;5046630;28;20462;-83
2023/10/13 00:26:24;;;;;;;5.97;5.37;;;15.00;99.90;;;;;;5046831;28;21002;-85
2023/10/13 00:28:58;;;;;;;5.73;4.10;;;15.00;99.90;;;;;;5048441;28;20530;-85
2023/10/13 00:31:31;;;;;;;7.60;4.13;;;15.00;99.90;;;;;;5048144;28;20462;-83
2023/10/13 00:34:03;;;;;;;6.67;4.23;;;15.00;99.90;;;;;;5045217;28;20498;-83
2023/10/13 00:36:31;;;;;;;7.73;4.47;;;15.00;99.90;;;;;;5047932;28;20456;-84
2023/10/13 00:38:59;;;;;;;6.73;4.90;;;15.10;99.90;;;;;;5043586;28;20471;-83
2023/10/13 00:41:50;;;;;;;7.07;3.90;;;15.10;99.90;;;;;;5048018;28;20491;-84
2023/10/13 00:44:24;;;;;;;13.70;5.70;;;15.10;99.90;;;;;;5047552;28;20484;-85
2023/10/13 00:46:55;;;;;;;7.80;5.33;;;15.10;99.90;;;;;;5048290;28;20458;-84
2023/10/13 00:49:22;;;;;;;8.93;5.87;;;15.10;99.90;;;;;;5048158;28;20789;-83
2023/10/13 00:51:49;;;;;;;9.57;5.40;;;15.00;99.90;;;;;;5043193;28;20460;-83
2023/10/13 00:54:18;;;;;;;8.00;5.43;;;15.00;99.90;;;;;;5038022;28;20541;-83
2023/10/13 00:56:48;;;;;;;8.37;5.67;;;15.00;99.90;;;;;;5046316;28;20459;-83
2023/10/13 00:59:16;;;;;;;13.47;5.87;;;15.00;99.90;;;;;;5047365;28;20532;-85
2023/10/13 01:01:45;;;;;;;10.40;6.30;;;15.00;99.90;;;;;;5046489;28;21000;-83
2023/10/13 01:04:12;;;;;;;6.37;5.20;;;14.90;99.90;;;;;;5046703;28;20822;-83
2023/10/13 01:06:40;;;;;;;7.70;5.83;;;14.90;99.90;;;;;;5047020;28;20503;-84
2023/10/13 01:09:14;;;;;;;8.83;5.63;;;15.00;99.90;;;;;;5048063;28;20898;-83
2023/10/13 01:11:42;;;;;;;5.90;5.10;;;15.00;99.90;;;;;;5047164;28;20475;-83
2023/10/13 01:14:11;;;;;;;9.00;6.47;;;15.00;99.90;;;;;;5049807;28;20491;-85
2023/10/13 01:16:40;;;;;;;6.07;5.47;;;15.00;99.90;;;;;;5053438;28;20572;-83
2023/10/13 01:19:07;;;;;;;11.50;6.73;;;14.90;99.90;;;;;;5056510;28;20452;-84
2023/10/13 01:21:34;;;;;;;6.03;4.20;;;14.80;99.90;;;;;;5052991;28;20457;-84
2023/10/13 01:24:07;;;;;;;6.83;4.83;;;14.70;99.90;;;;;;5050386;28;21384;-83
2023/10/13 01:26:38;;;;;;;6.60;4.03;;;14.70;99.90;;;;;;5050908;28;20463;-85
2023/10/13 01:29:12;;;;;;;7.20;4.43;;;14.70;99.90;;;;;;5052196;28;20539;-85
2023/10/13 01:31:45;;;;;;;8.03;4.90;;;14.80;99.90;;;;;;5043471;28;20472;-87
2023/10/13 01:34:14;;;;;;;3.37;3.07;;;14.80;99.90;;;;;;5052091;28;20510;-84
2023/10/13 01:36:41;;;;;;;6.80;4.70;;;14.90;99.90;;;;;;5047035;28;20451;-87
2023/10/13 01:39:16;;;;;;;5.80;4.37;;;15.00;99.90;;;;;;5046159;28;20456;-84
2023/10/13 01:41:42;;;;;;;6.27;2.77;;;15.10;99.90;;;;;;5049057;28;20491;-83
2023/10/13 01:44:11;;;;;;;5.60;3.20;;;15.10;99.90;;;;;;5047213;28;20548;-83
2023/10/13 01:46:37;;;;;;;4.30;2.83;;;15.20;99.90;;;;;;5050612;28;20448;-84
2023/10/13 01:49:04;;;;;;;3.53;2.97;;;15.20;99.90;;;;;;5050721;28;20494;-83
2023/10/13 01:51:30;;;;;;;3.03;2.73;;;15.20;99.90;;;;;;5050483;28;20452;-83
2023/10/13 01:53:57;;;;;;;3.63;2.63;;;15.30;99.90;;;;;;5045816;28;20464;-87
2023/10/13 01:56:29;;;;;;;5.47;1.70;;;15.30;99.90;;;;;;5048819;28;20556;-85
2023/10/13 01:58:56;;;;;;;5.03;2.97;;;15.20;99.90;;;;;;5049400;28;20467;-83
2023/10/13 02:01:26;;;;;;;9.30;1.60;;;15.10;99.90;;;;;;5046896;28;20923;-83
2023/10/13 02:04:01;;;;;;;3.77;2.40;;;15.10;99.90;;;;;;5049651;28;20459;-86
2023/10/13 02:06:32;;;;;;;6.80;2.40;;;15.10;99.90;;;;;;5047699;28;20458;-83
2023/10/13 02:09:05;;;;;;;5.40;2.67;;;15.10;99.90;;;;;;5046948;28;20546;-82
2023/10/13 02:11:33;;;;;;;5.10;1.97;;;15.10;99.90;;;;;;5049532;28;20945;-86
2023/10/13 02:14:00;;;;;;;4.00;1.80;;;15.10;99.90;;;;;;5045155;28;20974;-86
2023/10/13 02:16:26;;;;;;;2.87;1.87;;;15.10;99.90;;;;;;5049176;28;20547;-84
2023/10/13 02:18:53;;;;;;;7.63;2.47;;;15.10;99.90;;;;;;5049648;28;20463;-82
2023/10/13 02:21:19;;;;;;;3.77;2.10;;;15.00;99.90;;;;;;5049478;28;20450;-86
2023/10/13 02:23:59;;;;;;;7.70;2.90;;;15.00;99.90;;;;;;5046460;28;20494;-86
2023/10/13 02:26:30;;;;;;;5.77;2.20;;;14.90;99.90;;;;;;5049311;28;20442;-83
2023/10/13 02:29:00;;;;;;;3.03;2.30;;;14.90;99.90;;;;;;5048966;28;20971;-82
2023/10/13 02:31:28;;;;;;;4.67;1.67;;;14.80;99.90;;;;;;5053113;28;20474;-85
2023/10/13 02:33:54;;;;;;;5.70;3.30;;;14.70;99.90;;;;;;5043565;28;20560;-86
2023/10/13 02:36:35;;;;;;;5.40;2.97;;;14.70;99.90;;;;;;5049001;28;20575;-83
2023/10/13 02:39:07;;;;;;;3.20;1.93;;;14.70;99.90;;;;;;5047863;28;20475;-83
2023/10/13 02:41:36;;;;;;;4.07;1.70;;;14.70;99.90;;;;;;5050162;28;20486;-83
2023/10/13 02:44:06;;;;;;;4.60;2.67;;;14.70;99.90;;;;;;5046937;28;20493;-83
2023/10/13 02:46:35;;;;;;;5.97;3.13;;;14.70;99.90;;;;;;5048327;28;20461;-84
2023/10/13 02:49:09;;;;;;;5.27;2.03;;;14.60;99.90;;;;;;5049117;28;20877;-86
2023/10/13 02:51:36;;;;;;;3.27;2.90;;;14.60;99.90;;;;;;5048933;28;20834;-82
2023/10/13 02:54:08;;;;;;;5.13;3.70;;;14.50;99.90;;;;;;5044927;28;20915;-81
2023/10/13 02:56:36;;;;;;;7.07;4.80;;;14.10;99.90;;;;;;5051608;28;20462;-83
2023/10/13 02:59:05;;;;;;;8.43;4.87;;;13.80;99.90;;;;;;5045223;28;20543;-84
2023/10/13 03:01:33;;;;;;;9.20;5.53;;;13.60;99.90;;;;;;5043087;28;20459;-83
2023/10/13 03:04:00;;;;;;;9.37;6.43;;;13.50;99.90;;;;;;5050664;28;20472;-83
2023/10/13 03:06:33;;;;;;;7.00;6.30;;;13.50;99.90;;;;;;5049180;28;20477;-87
2023/10/13 03:09:13;;;;;;;9.07;7.00;;;13.50;99.90;;;;;;5047197;28;20544;-82
2023/10/13 03:11:42;;;;;;;6.30;5.70;;;13.40;99.90;;;;;;5044520;28;21068;-81
2023/10/13 03:14:23;;;;;;;9.20;7.23;;;13.40;99.90;;;;;;5047610;28;20539;-83
2023/10/13 03:16:51;;;;;;;12.67;8.33;;;13.30;99.90;;;;;;5048256;28;20575;-83
2023/10/13 03:19:20;;;;;;;8.83;7.33;;;13.40;99.90;;;;;;5053666;28;20470;-83
2023/10/13 03:21:54;;;;;;;9.20;6.77;;;13.40;99.90;;;;;;5047397;28;20461;-83
2023/10/13 03:24:23;;;;;;;8.33;6.80;;;13.30;99.90;;;;;;5047268;28;20459;-85
2023/10/13 03:26:52;;;;;;;11.40;7.67;;;13.30;99.90;;;;;;5047081;28;20548;-84
2023/10/13 03:29:23;;;;;;;7.93;7.13;;;13.30;99.90;;;;;;5048019;28;20448;-84
2023/10/13 03:32:06;;;;;;;9.33;8.00;;;13.30;99.90;;;;;;5043814;28;20475;-86
2023/10/13 03:34:34;;;;;;;9.80;7.27;;;13.30;99.90;;;;;;5048584;28;20451;-85
2023/10/13 03:37:10;;;;;;;7.53;6.20;;;13.10;99.90;;;;;;5048140;28;20463;-87
2023/10/13 03:39:37;;;;;;;7.03;6.07;;;13.10;99.90;;;;;;5047920;28;20470;-85
2023/10/13 03:42:06;;;;;;;12.00;6.27;;;13.00;99.90;;;;;;5049730;28;20493;-82
2023/10/13 03:44:38;;;;;;;6.30;5.60;;;13.00;99.90;;;;;;5031793;28;20529;-82
2023/10/13 03:47:18;;;;;;;7.33;5.00;;;12.90;99.90;;;;;;5047173;28;21193;-85
2023/10/13 03:49:47;;;;;;;7.47;5.70;;;12.90;99.90;;;;;;5048561;28;20460;-86
2023/10/13 03:52:14;;;;;;;6.43;5.27;;;12.90;99.90;;;;;;5042495;28;20461;-83
2023/10/13 03:54:41;;;;;;;7.10;4.33;;;12.90;99.90;;;;;;5042862;28;21033;-83
2023/10/13 03:57:11;;;;;;;7.07;4.90;;;12.90;99.90;;;;;;5048767;28;20574;-85
2023/10/13 03:59:46;;;;;;;5.47;3.00;;;12.90;99.90;;;;;;5047261;28;20446;-83
2023/10/13 04:02:18;;;;;;;9.10;4.07;;;13.00;99.90;;;;;;5049390;28;20478;-84
2023/10/13 04:04:49;;;;;;;6.63;3.33;;;13.00;99.90;;;;;;5048037;28;20480;-84
2023/10/13 04:15:43;;;;;;;4.60;3.60;;;13.00;99.90;;;;;;5043084;28;20530;-84
2023/10/13 04:18:30;;;;;;;3.83;3.30;;;13.00;99.90;;;;;;5047454;28;20464;-83
2023/10/13 04:21:18;;;;;;;6.00;3.60;;;12.90;99.90;;;;;;5047673;28;20856;-88
2023/10/13 04:26:36;;;;;;;5.83;5.27;;;12.60;99.90;;;;;;5045717;28;20436;-84
2023/10/13 04:29:10;;;;;;;4.80;3.70;;;12.50;99.90;;;;;;5044737;28;21240;-83
2023/10/13 04:31:56;;;;;;;5.50;4.77;;;12.40;99.90;;;;;;5047227;28;20490;-88
2023/10/13 04:34:28;;;;;;;6.37;4.50;;;12.40;99.90;;;;;;5048751;28;20958;-86
2023/10/13 04:37:11;;;;;;;5.07;4.10;;;12.30;99.90;;;;;;5046705;28;20494;-84
2023/10/13 04:39:39;;;;;;;12.47;5.97;;;12.30;99.90;;;;;;5035383;28;20984;-83
2023/10/13 04:42:13;;;;;;;8.43;4.30;;;12.40;99.90;;;;;;5048040;28;20811;-86
2023/10/13 04:44:52;;;;;;;5.17;4.37;;;12.40;99.90;;;;;;5049150;28;20579;-82
2023/10/13 04:47:21;;;;;;;4.83;3.97;;;12.40;99.90;;;;;;5044908;28;20871;-85
2023/10/13 04:49:52;;;;;;;6.13;4.73;;;12.50;99.90;;;;;;5047974;28;20492;-85
2023/10/13 04:58:14;;;;;;;5.40;3.80;;;12.60;99.90;;;;;;5032062;28;20486;-86
2023/10/13 05:00:55;;;;;;;3.27;2.40;;;12.60;99.90;;;;;;5044200;28;20880;-86
2023/10/13 05:04:08;;;;;;;3.97;3.17;;;12.70;99.90;;;;;;5052350;28;20819;-87
2023/10/13 05:45:22;;;;;;;9.00;3.60;;;12.60;99.90;;;;;;5051818;28;20800;-89
2023/10/13 05:47:47;;;;;;;8.23;4.70;;;12.60;99.90;;;;;;5051136;28;20445;-87
2023/10/13 06:28:41;;;;;;;10.70;9.70;;;13.20;99.90;;;;;;5038860;28;20465;-88
2023/10/13 06:31:13;;;;;;;17.67;9.70;;;13.30;99.90;;;;;;5046395;28;20861;-85
2023/10/13 06:33:45;;;;;;;13.83;10.03;;;13.30;99.90;;;;;;5050455;28;20484;-86
2023/10/13 06:36:12;;;;;;;13.17;8.20;;;13.40;99.90;;;;;;5050550;28;20487;-87
2023/10/13 06:38:39;;;;;;;9.63;8.23;;;13.50;99.90;;;;;;5045612;28;20935;-88
2023/10/13 06:41:09;;;;;;;13.17;8.80;;;13.60;99.90;;;;;;5043888;28;20550;-87
2023/10/13 06:43:39;;;;;;;12.40;9.73;;;13.70;99.90;;;;;;5050524;28;20452;-85
2023/10/13 06:46:07;;;;;;;17.50;8.00;;;13.80;99.90;;;;;;5042512;28;20566;-86
2023/10/13 06:48:35;;;;;;;9.90;5.70;;;14.00;99.90;;;;;;5051380;28;20501;-85
2023/10/13 06:51:14;;;;;;;7.80;6.30;;;14.20;99.90;;;;;;5048511;28;20481;-86
2023/10/13 06:53:46;;;;;;;7.40;5.17;;;14.20;99.90;;;;;;5047769;28;20467;-85
2023/10/13 06:56:22;;;;;;;10.87;7.17;;;14.20;99.90;;;;;;5044225;28;20493;-87
2023/10/13 06:58:49;;;;;;;9.37;5.43;;;14.40;99.90;;;;;;5045271;28;20496;-85
2023/10/13 07:01:16;;;;;;;6.67;5.43;;;14.40;99.90;;;;;;5047318;28;20878;-85
2023/10/13 07:03:44;;;;;;;6.00;5.40;;;14.60;99.90;;;;;;5048907;28;20444;-85
2023/10/13 07:06:17;;;;;;;8.53;7.00;;;14.60;99.90;;;;;;5048131;28;20474;-85
2023/10/13 07:08:51;;;;;;;10.00;6.23;;;14.60;99.90;;;;;;5049927;28;20461;-85
2023/10/13 07:11:32;;;;;;;3.93;3.60;;;14.60;99.90;;;;;;5042604;28;20466;-85
2023/10/13 07:14:09;;;;;;;11.33;3.30;;;14.80;99.90;;;;;;5049111;28;20463;-85
2023/10/13 07:16:37;;;;;;;3.77;2.10;;;14.90;99.90;;;;;;5044770;28;20979;-86
2023/10/13 07:19:05;;;;;;;6.10;3.37;;;15.10;99.90;;;;;;5045360;28;20957;-85
2023/10/13 07:21:33;;;;;;;6.63;2.47;;;15.30;99.90;;;;;;5047266;28;20530;-85
2023/10/13 07:24:11;;;;;;;4.67;2.03;;;15.50;99.90;;;;;;5045440;28;20459;-84
2023/10/13 07:26:42;;;;;;;5.90;2.30;;;15.70;99.90;;;;;;5048585;28;20535;-86
2023/10/13 07:29:10;;;;;;;4.93;2.30;;;15.80;99.90;;;;;;5048380;28;20464;-86
2023/10/13 07:31:40;;;;;;;5.77;3.03;;;15.90;99.90;;;;;;5048460;28;20460;-86
2023/10/13 07:34:12;;;;;;;5.27;3.60;;;16.00;99.90;;;;;;5044232;28;20455;-85
2023/10/13 07:36:43;;;;;;;8.17;4.60;;;16.10;99.90;;;;;;5045923;28;20528;-86
2023/10/13 07:39:21;;;;;;;5.00;3.37;;;16.10;99.90;;;;;;5040065;28;20923;-85
2023/10/13 07:41:55;;;;;;;6.03;2.80;;;16.20;99.90;;;;;;5048280;28;20949;-84
2023/10/13 07:44:28;;;;;;;5.90;3.43;;;16.30;99.90;;;;;;5046577;28;21024;-87
2023/10/13 07:47:02;;;;;;;4.90;3.37;;;16.50;99.90;;;;;;5047719;28;20537;-84
2023/10/13 07:49:36;;;;;;;7.77;2.83;;;16.50;99.90;;;;;;5045983;28;20824;-88
2023/10/13 07:52:14;;;;;;;4.10;2.67;;;16.50;99.90;;;;;;5046844;28;20471;-85
2023/10/13 07:54:47;;;;;;;7.00;3.97;;;16.60;99.90;;;;;;5046217;28;20472;-88
2023/10/13 07:57:17;;;;;;;7.10;4.00;;;16.80;99.90;;;;;;5048704;28;20917;-85
2023/10/13 07:59:51;;;;;;;5.63;3.27;;;16.90;99.90;;;;;;5040695;28;20527;-86
2023/10/13 08:04:59;;;;;;;4.47;2.70;;;17.10;99.90;;;;;;5047522;28;20820;-85
2023/10/13 08:07:28;;;;;;;3.83;2.53;;;17.30;99.90;;;;;;5041937;28;20460;-85
2023/10/13 08:09:57;;;;;;;8.10;2.90;;;17.50;99.90;;;;;;5049007;28;20449;-85
2023/10/13 08:12:27;;;;;;;1.83;1.57;;;17.60;99.90;;;;;;5043597;28;20445;-85
2023/10/13 08:15:11;;;;;;;4.80;1.87;;;17.80;99.90;;;;;;5055068;28;20472;-86
2023/10/13 08:17:44;;;;;;;6.43;2.17;;;18.20;99.90;;;;;;5056104;28;21060;-85
2023/10/13 08:20:12;;;;;;;2.47;1.93;;;18.50;99.90;;;;;;5050452;28;20445;-86
2023/10/13 08:22:46;;;;;;;8.47;2.23;;;18.60;98.70;;;;;;5047610;28;20464;-88
2023/10/13 08:25:20;;;;;;;4.33;2.27;;;18.80;98.70;;;;;;5048603;28;20792;-87
2023/10/13 08:28:45;;;;;;;3.77;2.90;;;19.10;99.90;;;;;;5050184;28;20855;-86
2023/10/13 08:30:55;;;;;;;7.33;4.50;;;19.20;98.80;;;;;;5048461;28;20536;-85
2023/10/13 08:33:27;;;;;;;4.70;1.90;;;19.20;97.20;;;;;;5047104;28;20465;-88
2023/10/13 08:36:18;;;;;;;7.33;2.17;;;19.40;94.60;;;;;;5049556;28;20577;-86
2023/10/13 08:38:51;;;;;;;10.37;4.90;;;19.40;94.80;;;;;;5046370;28;20468;-86
2023/10/13 08:41:31;;;;;;;3.63;2.60;;;19.20;96.60;;;;;;5048855;28;20490;-86
2023/10/13 08:44:09;;;;;;;4.33;2.43;;;19.10;96.30;;;;;;5036570;28;20464;-86
2023/10/13 08:47:03;;;;;;;6.57;2.87;;;19.20;96.00;;;;;;5047396;28;20532;-88
2023/10/13 08:49:39;;;;;;;9.53;4.53;;;19.30;95.10;;;;;;5046558;28;20465;-86
2023/10/13 08:52:42;;;;;;;11.63;3.13;;;19.20;99.80;;;;;;5048968;28;20806;-85
2023/10/13 08:55:29;;;;;;;9.40;4.13;;;19.20;99.90;;;;;;5042994;28;20543;-86
2023/10/13 08:57:53;;;;;;;5.23;4.07;;;19.20;99.90;;;;;;5043805;28;20488;-85
2023/10/13 09:00:28;;;;;;;9.30;4.07;;;19.10;99.90;;;;;;5043987;28;20452;-85
2023/10/13 09:03:28;;;;;;;8.00;4.20;;;19.10;99.90;;;;;;5040181;28;20465;-86
2023/10/13 09:06:01;;;;;;;5.87;4.97;;;19.00;99.90;;;;;;5044921;28;20449;-85
2023/10/13 09:08:35;;;;;;;8.33;4.47;;;19.10;99.90;;;;;;5045274;28;20566;-86
2023/10/13 09:11:11;;;;;;;12.17;7.80;;;19.10;99.90;;;;;;5047045;28;20455;-84
2023/10/13 09:13:43;;;;;;;6.07;4.60;;;19.10;99.90;;;;;;5038944;28;20483;-85
2023/10/13 09:16:51;;;;;;;6.40;5.70;;;19.00;99.90;;;;;;5046008;28;20484;-85
2023/10/13 09:19:11;;;;;;;8.37;4.87;;;19.30;99.90;;;;;;5041960;28;20435;-85
2023/10/13 09:21:47;;;;;;;7.90;5.23;;;19.40;99.90;;;;;;5045881;28;20465;-87
2023/10/13 09:24:17;;;;;;;8.50;5.20;;;19.50;99.90;;;;;;5047822;28;20467;-85
2023/10/13 09:26:44;;;;;;;7.37;4.47;;;19.50;99.90;;;;;;5047675;28;20461;-86
2023/10/13 09:29:18;;;;;;;8.23;5.87;;;19.60;99.90;;;;;;5047906;28;21138;-85
2023/10/13 09:31:50;;;;;;;11.83;5.67;;;19.90;99.90;;;;;;5046146;28;20496;-85
2023/10/13 09:34:23;;;;;;;8.37;3.23;;;20.00;99.10;;;;;;5048233;28;20487;-86
2023/10/13 09:36:55;;;;;;;4.67;3.80;;;19.90;98.70;;;;;;5050769;28;20488;-86
2023/10/13 09:39:41;;;;;;;4.60;4.20;;;19.80;99.90;;;;;;5046227;28;20448;-84
2023/10/13 09:42:10;;;;;;;4.07;3.47;;;19.70;98.90;;;;;;5041897;28;20457;-85
2023/10/13 09:44:40;;;;;;;7.57;4.43;;;19.90;97.20;;;;;;5047724;28;20465;-85
2023/10/13 09:47:17;;;;;;;6.10;3.37;;;20.00;96.80;;;;;;5051173;28;20563;-88
2023/10/13 09:49:45;;;;;;;5.70;3.10;;;20.10;95.80;;;;;;5047783;28;20807;-88
2023/10/13 09:52:19;;;;;;;5.93;2.90;;;20.30;93.10;;;;;;5045882;28;20454;-88
2023/10/13 09:55:13;;;;;;;3.70;2.47;;;20.50;91.90;;;;;;5045363;28;20526;-87
2023/10/13 09:57:48;;;;;;;8.20;3.23;;;20.50;92.50;;;;;;5048948;28;20549;-87
2023/10/13 10:00:46;;;;;;;6.33;2.30;;;20.70;89.90;;;;;;5050203;28;20455;-87
2023/10/13 10:03:39;;;;;;;5.77;2.67;;;20.70;87.90;;;;;;5045834;28;20569;-87
2023/10/13 10:06:07;;;;;;;4.67;3.20;;;20.90;85.30;;;;;;5045220;28;20443;-86
2023/10/13 10:08:36;;;;;;;4.00;2.70;;;21.00;80.60;;;;;;5049681;28;20535;-86
2023/10/13 10:11:32;;;;;;;9.87;2.53;;;20.90;77.60;;;;;;5040930;28;20456;-86
2023/10/13 10:14:19;;;;;;;9.40;2.03;;;21.00;77.70;;;;;;5050083;28;20975;-86
2023/10/13 10:16:59;;;;;;;11.20;3.03;;;21.20;77.30;;;;;;5048717;28;20488;-86
2023/10/13 10:19:28;;;;;;;5.23;1.87;;;21.40;71.50;;;;;;5053911;28;20463;-86
2023/10/13 10:22:10;;;;;;;14.57;3.10;;;21.70;69.20;;;;;;5043790;28;20472;-85
2023/10/13 10:24:38;;;;;;;10.37;3.70;;;21.80;69.30;;;;;;5048969;28;20514;-85
2023/10/13 10:27:05;;;;;;;4.27;2.47;;;21.90;69.30;;;;;;5050208;28;20444;-85
2023/10/13 10:29:34;;;;;;;5.80;3.20;;;21.90;66.20;;;;;;5050227;28;21089;-85
2023/10/13 10:32:06;;;;;;;3.93;2.60;;;21.80;71.70;;;;;;5048770;28;20484;-85
2023/10/13 10:34:35;;;;;;;11.83;2.87;;;22.00;68.00;;;;;;5048314;28;20806;-85
2023/10/13 10:37:08;;;;;;;6.53;2.40;;;22.10;68.50;;;;;;5046205;28;20538;-86
2023/10/13 10:39:44;;;;;;;4.60;2.83;;;22.10;66.80;;;;;;5043273;28;20448;-86
2023/10/13 10:42:23;;;;;;;3.60;2.97;;;22.00;66.40;;;;;;5046481;28;20439;-86
2023/10/13 10:44:55;;;;;;;6.77;3.00;;;22.10;66.20;;;;;;5039357;28;20469;-86
2023/10/13 10:47:30;;;;;;;5.40;2.63;;;22.20;70.00;;;;;;5048603;28;20445;-86
2023/10/13 10:50:00;;;;;;;5.67;3.00;;;22.30;67.50;;;;;;5044550;28;20559;-86
2023/10/13 10:52:36;;;;;;;10.57;5.40;;;22.30;64.90;;;;;;5049578;28;20829;-86
2023/10/13 10:55:07;;;;;;;14.03;2.50;;;22.50;65.70;;;;;;5032664;28;21047;-86
2023/10/13 10:57:37;;;;;;;3.43;2.07;;;22.70;68.20;;;;;;5047043;28;20496;-86
2023/10/13 11:00:12;;;;;;;7.70;4.03;;;22.70;64.80;;;;;;5048578;28;20469;-86
2023/10/13 11:02:40;;;;;;;4.03;2.70;;;22.90;66.50;;;;;;5048414;28;20468;-86
2023/10/13 11:05:10;;;;;;;2.53;1.97;;;23.00;64.90;;;;;;5048469;28;20522;-86
2023/10/13 11:07:37;;;;;;;2.37;2.17;;;23.20;69.70;;;;;;5048597;28;20544;-86
2023/10/13 11:10:26;;;;;;;6.90;2.60;;;23.30;68.50;;;;;;5048367;28;20445;-82
2023/10/13 11:13:11;;;;;;;7.93;3.10;;;23.30;65.20;;;;;;5045736;28;20578;-83
2023/10/13 11:15:44;;;;;;;7.57;3.70;;;23.10;68.40;;;;;;5053432;28;20515;-81
2023/10/13 11:18:16;;;;;;;4.40;3.40;;;23.00;66.30;;;;;;5048273;28;20583;-84
2023/10/13 11:20:45;;;;;;;6.63;2.77;;;23.10;65.40;;;;;;5047240;28;20627;-81
2023/10/13 11:23:13;;;;;;;4.60;3.33;;;23.30;67.70;;;;;;5056454;28;20468;-83
2023/10/13 11:25:43;;;;;;;4.20;2.57;;;23.30;65.80;;;;;;5050220;28;20857;-82
2023/10/13 11:28:19;;;;;;;2.30;2.10;;;23.30;64.00;;;;;;5059486;28;20471;-82
2023/10/13 11:30:49;;;;;;;5.73;1.97;;;23.30;59.30;;;;;;5054652;28;20448;-85
2023/10/13 11:33:21;;;;;;;3.80;1.80;;;23.40;57.60;;;;;;5050326;28;20659;-82
2023/10/13 11:35:56;;;;;;;3.80;3.10;;;23.60;60.00;;;;;;5048531;28;20518;-82
2023/10/13 11:38:27;;;;;;;8.00;1.80;;;23.60;64.70;;;;;;5047759;28;20530;-83
2023/10/13 11:44:05;;;;;;;5.10;2.47;;;23.60;56.10;;;;;;5041660;28;20463;-85
2023/10/13 11:49:31;;;;;;;5.30;1.50;;;23.60;54.10;;;;;;5035436;28;20825;-84
2023/10/13 11:52:10;;;;;;;11.30;1.77;;;23.70;53.50;;;;;;5047691;28;20449;-82
2023/10/13 11:54:41;;;;;;;7.53;1.80;;;23.80;55.60;;;;;;5047656;28;20464;-82
2023/10/13 11:57:09;;;;;;;5.57;2.43;;;23.70;53.50;;;;;;5046837;28;20898;-84
2023/10/13 11:59:44;;;;;;;5.00;2.13;;;23.70;57.00;;;;;;5048658;28;20518;-83
2023/10/13 12:04:59;;;;;;;2.53;2.10;;;23.90;53.70;;;;;;5045538;28;20440;-83
2023/10/13 12:07:45;;;;;;;2.33;2.07;;;23.90;50.80;;;;;;5047664;28;20536;-82
2023/10/13 12:10:16;;;;;;;2.07;1.77;;;24.00;49.30;;;;;;5045691;28;20472;-85
2023/10/13 12:12:46;;;;;;;3.77;2.53;;;24.00;48.00;;;;;;5041077;28;20963;-83
2023/10/13 12:15:26;;;;;;;4.67;1.87;;;24.10;47.90;;;;;;5040996;28;20465;-83
2023/10/13 12:17:53;;;;;;;5.07;2.00;;;24.40;47.40;;;;;;5047386;28;20490;-84
2023/10/13 12:20:32;;;;;;;3.37;1.90;;;24.40;46.80;;;;;;5055856;28;20472;-83
2023/10/13 12:23:09;;;;;;;4.43;1.83;;;24.40;45.80;;;;;;5048837;28;20448;-85
2023/10/13 12:25:54;;;;;;;3.83;1.50;;;24.40;46.80;;;;;;5043069;28;20522;-85
2023/10/13 12:28:23;;;;;;;1.23;1.10;;;24.50;46.90;;;;;;5047255;28;20469;-82
2023/10/13 12:30:52;;;;;;;5.90;2.50;;;24.60;46.30;;;;;;5055840;28;20506;-82
2023/10/13 12:33:25;;;;;;;5.90;2.60;;;24.70;45.60;;;;;;5048718;28;20828;-84
2023/10/13 12:36:06;;;;;;;5.77;1.80;;;24.70;45.40;;;;;;5048241;28;20441;-83
2023/10/13 12:38:50;;;;;;;6.03;2.10;;;24.70;47.60;;;;;;5047314;28;20484;-85
2023/10/13 12:52:19;;;;;;;5.80;2.40;;;24.30;43.40;;;;;;5046813;28;20879;-83
2023/10/13 12:54:58;;;;;;;5.53;2.10;;;24.20;42.90;;;;;;5041956;28;20574;-83
2023/10/13 12:57:25;;;;;;;5.93;1.43;;;24.20;40.80;;;;;;5048206;28;20492;-84
2023/10/13 12:59:53;;;;;;;5.03;1.47;;;24.40;40.40;;;;;;5046195;28;20457;-86
2023/10/13 13:02:20;;;;;;;2.20;1.63;;;24.40;38.70;;;;;;5048618;28;20464;-84
2023/10/13 13:04:53;;;;;;;4.03;1.50;;;24.50;39.30;;;;;;5053212;28;20537;-85
2023/10/13 13:07:20;;;;;;;5.43;1.33;;;24.60;36.70;;;;;;5046462;28;20457;-87
2023/10/13 13:09:48;;;;;;;2.13;1.43;;;24.50;33.80;;;;;;5047491;28;20453;-85
2023/10/13 13:12:15;;;;;;;5.50;1.90;;;24.70;35.20;;;;;;5052758;28;20480;-84
2023/10/13 13:14:45;;;;;;;6.23;1.37;;;24.70;37.10;;;;;;5064281;28;20473;-83
2023/10/13 13:17:13;;;;;;;2.83;1.50;;;24.60;38.10;;;;;;5047176;28;20516;-87
2023/10/13 13:19:40;;;;;;;3.23;1.50;;;24.60;35.60;;;;;;5051348;28;20468;-83
2023/10/13 13:22:11;;;;;;;3.47;1.40;;;24.40;36.30;;;;;;5049139;28;20465;-85
2023/10/13 13:24:43;;;;;;;5.60;2.63;;;24.40;38.50;;;;;;5050360;28;20465;-82
2023/10/13 13:27:13;;;;;;;3.63;2.03;;;24.40;37.40;;;;;;5046729;28;20633;-85
2023/10/13 13:29:41;;;;;;;1.93;1.20;;;24.40;38.60;;;;;;5050187;28;20548;-82
2023/10/13 13:32:17;;;;;;;1.90;1.40;;;24.40;37.50;;;;;;5050348;28;20572;-83
2023/10/13 13:34:44;;;;;;;5.73;2.63;;;24.40;34.60;;;;;;5052217;28;20471;-84
2023/10/13 13:37:12;;;;;;;7.47;2.47;;;24.30;34.90;;;;;;5052382;28;20483;-85
2023/10/13 13:39:43;;;;;;;3.33;2.10;;;24.20;36.80;;;;;;5050550;28;20555;-84
2023/10/13 13:42:17;;;;;;;7.63;1.40;;;24.20;39.30;;;;;;5047480;28;20461;-85
2023/10/13 13:44:46;;;;;;;2.37;1.30;;;24.20;38.00;;;;;;5051084;28;20453;-84
2023/10/13 13:47:13;;;;;;;4.40;2.47;;;24.20;39.30;;;;;;5052221;28;20560;-84
2023/10/13 13:49:40;;;;;;;2.77;1.53;;;24.20;40.50;;;;;;5043628;28;20510;-85
2023/10/13 13:52:09;;;;;;;8.40;1.87;;;24.20;40.10;;;;;;5050997;28;20524;-85
2023/10/13 13:54:40;;;;;;;8.27;1.27;;;24.30;40.70;;;;;;5047274;28;20746;-86
2023/10/13 13:57:07;;;;;;;4.97;2.03;;;24.20;39.90;;;;;;5053675;28;20508;-86
2023/10/13 13:59:36;;;;;;;4.10;1.70;;;24.10;41.00;;;;;;5050154;28;20460;-83
2023/10/13 14:02:19;;;;;;;2.90;1.20;;;24.10;40.50;;;;;;5048952;28;20460;-84
2023/10/13 14:04:46;;;;;;;4.10;1.33;;;24.10;41.70;;;;;;5050243;28;20548;-84
2023/10/13 14:07:16;;;;;;;3.43;1.40;;;24.00;41.50;;;;;;5051108;28;20905;-84
2023/10/13 14:09:44;;;;;;;7.23;1.77;;;23.90;43.10;;;;;;5050722;28;20468;-84
2023/10/13 14:14:57;;;;;;;6.20;2.10;;;23.60;43.30;;;;;;5039294;28;20959;-86
2023/10/13 14:17:28;;;;;;;4.00;2.20;;;23.60;43.40;;;;;;5050600;28;20540;-84
2023/10/13 14:19:57;;;;;;;6.87;2.17;;;23.60;45.10;;;;;;5047268;28;20474;-84
2023/10/13 14:22:25;;;;;;;3.03;1.53;;;23.50;46.20;;;;;;5056064;28;20518;-84
2023/10/13 14:24:54;;;;;;;6.23;1.60;;;23.50;46.50;;;;;;5050024;28;20472;-82
2023/10/13 14:27:23;;;;;;;4.63;1.43;;;23.40;47.50;;;;;;5050437;28;20461;-83
2023/10/13 14:29:52;;;;;;;1.80;0.90;;;23.30;48.40;;;;;;5048624;28;20448;-82
2023/10/13 14:32:24;;;;;;;2.03;1.40;;;23.30;47.70;;;;;;5060230;28;20523;-82
2023/10/13 14:34:56;;;;;;;2.40;1.20;;;23.30;47.80;;;;;;5065511;28;20449;-82
2023/10/13 14:37:28;;;;;;;1.13;1.00;;;23.30;48.50;;;;;;5052314;28;20469;-83
2023/10/13 14:39:56;;;;;;;3.57;1.30;;;23.30;47.10;;;;;;5056655;28;20456;-82
2023/10/13 14:42:24;;;;;;;7.30;2.63;;;23.30;47.20;;;;;;5062475;28;20570;-83
2023/10/13 14:44:55;;;;;;;9.53;2.57;;;23.30;47.60;;;;;;5051361;28;20514;-82
2023/10/13 14:47:25;;;;;;;3.37;1.70;;;23.20;46.90;;;;;;5054095;28;20539;-83
2023/10/13 14:49:55;;;;;;;5.50;1.23;;;23.10;47.60;;;;;;5050702;28;20480;-84
2023/10/13 14:52:22;;;;;;;7.27;2.27;;;23.00;48.00;;;;;;5049975;28;20480;-85
2023/10/13 14:54:54;;;;;;;2.67;1.10;;;22.90;48.90;;;;;;5054122;28;20541;-84
2023/10/13 14:57:24;;;;;;;4.27;1.63;;;22.90;48.00;;;;;;5037405;28;20480;-83
2023/10/13 14:59:52;;;;;;;4.40;1.43;;;22.80;48.50;;;;;;5040004;28;20482;-83
2023/10/13 15:02:19;;;;;;;5.03;1.80;;;22.80;48.90;;;;;;5048320;28;21232;-84
2023/10/13 15:04:49;;;;;;;2.20;1.17;;;22.70;47.10;;;;;;5045827;28;20456;-82
2023/10/13 15:07:17;;;;;;;7.40;2.10;;;22.70;46.10;;;;;;5048732;28;20444;-85
2023/10/13 15:09:44;;;;;;;9.13;3.87;;;22.60;46.80;;;;;;5046932;28;20978;-85
2023/10/13 15:12:11;;;;;;;5.47;2.60;;;22.50;46.40;;;;;;5047192;28;20449;-84